Westbury, New York
Current Conditions -  °F | °C
As of 4:53 PM on Tuesday 21 Oct 2014 (Local Time) from KFRG Reporting Station
Scattered Clouds Scattered Clouds  
Wind Chill: 61°   Ceiling: Unl
Heat Index: 61°   Visibility: 10mi
Dew Point: 56°   Wind: 6mph
Humidity: 83%   Direction: 130°SE
Pressure: 29.84"   Gusts: NA
Location:  40.76°N, 73.59°W
Report Text: KFRG 212053Z 13005KT 10SM SCT110 16/13 A2984 RMK AO2 LTG DSNT SE RAE11 TSB21E36 SLP104 P0000 60014 T01610133 55007
Loading
Personal Weather Stations






























Interactive Weather Map New forecast layout! Learn more

10-Day Weather Forecast

Advertisements
Track Severe Weather on mobile